Atlantic - Newfoundland: Past 24 Hour Conditions

 

Argentia

04:30 AM NST 24 November 2014
This table is a summary of hourly weather conditions for the past 24 hours.
Date / Time
(NST)
Wind(knots) Conditions Visibility(km) Pressure(kPa) Air tempC) Relative humidity(%) Dew pointC)
24 November 2014
4:30 NW 12 N/A N/A 102.2 1 72 -4
3:30 NW 15 N/A N/A 102.1 1 69 -4
2:30 WNW 12 gust 18 N/A N/A 102.0 1 71 -3
1:30 WNW 14 N/A N/A 101.8 2 69 -3
0:30 WNW 11 gust 17 N/A N/A 101.7 2 67 -3
23 November 2014
23:30 WNW 22 N/A N/A 101.6 3 65 -3
22:30 WNW 19 N/A N/A 101.5 3 64 -3
21:30 WNW 22 N/A N/A 101.5 4 63 -2
20:30 W 20 gust 26 N/A N/A 101.4 5 69 -1
19:30 W 19 gust 29 N/A N/A 101.3 5 72 0
18:30 W 16 gust 26 N/A N/A 101.2 4 73 0
17:30 W 17 gust 24 N/A N/A 101.0 4 72 0
16:30 W 16 gust 23 N/A N/A 100.9 4 73 0
15:30 W 19 gust 24 N/A N/A 100.8 4 76 0
14:30 WSW 23 N/A N/A 100.7 4 81 1
13:30 W 20 gust 25 N/A N/A 100.7 4 86 2
12:30 WSW 23 N/A N/A 100.6 4 85 1
11:30 WSW 21 N/A N/A 100.7 4 86 2
10:30 WSW 23 N/A N/A 100.7 4 87 2
9:30 WSW 19 gust 25 N/A N/A 100.7 4 85 2
8:30 WSW 22 N/A N/A 100.6 4 81 1
7:30 WSW 27 N/A N/A 100.6 4 80 1
6:30 WSW 26 gust 31 N/A N/A 100.6 4 77 0
5:30 WSW 23 gust 32 N/A N/A 100.6 3 77 0
4:30 WSW 26 gust 31 N/A N/A 100.6 3 79 -1
 
Map of Atlantic - Newfoundland marine weather areas Southwestern Grand Banks - 44138 Banquereau - 44139 Tail of the Bank - 44140 Nickerson Bank - 44251 Northeast Burgeo Bank - 44255 Blanc-Sablon Airport Cap Whittle Chevery Natashquan Airport Heath Point Miscou Island Grand Étang Ingonish Beach North Mountain St.Paul Island J.A. Douglas McCurdy Sydney Airport Charlottetown Airport East Point North Cape Argentia Bonavista Burgeo Cape Race Corner Brook Daniel's Harbour Englee Ferolle Point La Scie Port aux Basques Rocky Harbour Sagona Island St. Anthony Airport St. John's Int'l Airport St. Lawrence Stephenville Airport Twillingate Winterland Wreckhouse Cartwright Airport Mary's Harbour Grates Cove Pool's Island Marticot Island Long Pond Îles de la Madeleine Airport
Legend: buoyBuoy land stationLand Station